createdAt,value
2023-04-30T00:01:41.538Z,7.24
2023-04-30T00:03:43.124Z,7.24
2023-04-30T00:05:44.584Z,7.21
2023-04-30T00:07:45.984Z,7.19
2023-04-30T00:09:47.501Z,7.16
2023-04-30T00:11:48.923Z,7.17
2023-04-30T00:13:50.701Z,7.11
2023-04-30T00:15:52.255Z,7.08
2023-04-30T00:17:53.680Z,7.11
2023-04-30T00:19:55.509Z,7.07
2023-04-30T00:21:57.239Z,7.05
2023-04-30T00:24:00.591Z,6.98
2023-04-30T00:26:02.161Z,7.00
2023-04-30T00:28:03.683Z,6.99
2023-04-30T00:30:06.006Z,6.92
2023-04-30T00:32:07.473Z,6.90
2023-04-30T00:34:08.932Z,6.88
2023-04-30T00:36:10.502Z,6.86
2023-04-30T00:38:11.919Z,6.82
2023-04-30T00:40:13.494Z,6.80
2023-04-30T00:42:14.927Z,6.77
2023-04-30T00:44:16.335Z,6.74
2023-04-30T00:46:17.792Z,6.71
2023-04-30T00:48:19.481Z,6.67
2023-04-30T00:50:22.282Z,6.63
2023-04-30T00:52:23.899Z,6.61
2023-04-30T00:54:25.722Z,6.56
2023-04-30T00:56:27.141Z,6.55
2023-04-30T00:58:28.697Z,6.51
2023-04-30T01:00:30.375Z,6.50
2023-04-30T01:04:57.984Z,6.46
2023-04-30T01:07:02.212Z,6.43
2023-04-30T01:09:03.834Z,6.40
2023-04-30T01:11:17.534Z,6.37
2023-04-30T01:13:42.240Z,6.34
2023-04-30T01:15:57.133Z,6.31
2023-04-30T01:18:10.901Z,6.27
2023-04-30T01:20:13.422Z,6.24
2023-04-30T01:22:26.810Z,6.20
2023-04-30T01:24:49.079Z,6.17
2023-04-30T01:27:07.587Z,6.15
2023-04-30T01:29:12.221Z,6.12
2023-04-30T01:31:14.824Z,6.07
2023-04-30T01:33:16.254Z,6.06
2023-04-30T01:35:17.691Z,6.03
2023-04-30T01:37:31.577Z,6.04
2023-04-30T01:39:41.941Z,6.00
2023-04-30T01:41:57.905Z,5.98
2023-04-30T01:44:21.343Z,5.96
2023-04-30T01:46:28.619Z,5.93
2023-04-30T01:49:12.073Z,5.92
2023-04-30T01:51:25.084Z,5.92
2023-04-30T01:53:40.123Z,5.90
2023-04-30T01:55:47.788Z,5.89
2023-04-30T01:58:00.763Z,5.85
2023-04-30T02:00:04.703Z,5.82
2023-04-30T02:02:06.877Z,5.81
2023-04-30T02:04:10.431Z,5.80
2023-04-30T02:06:11.960Z,5.76
2023-04-30T02:08:13.431Z,5.76
2023-04-30T02:10:17.728Z,5.74
2023-04-30T02:12:19.138Z,5.72
2023-04-30T02:14:20.536Z,5.73
2023-04-30T02:16:22.123Z,5.70
2023-04-30T02:18:23.570Z,5.69
2023-04-30T02:20:24.997Z,5.67
2023-04-30T02:22:27.218Z,5.66
2023-04-30T02:24:28.584Z,5.67
2023-04-30T02:26:29.960Z,5.66
2023-04-30T02:28:31.319Z,5.65
2023-04-30T02:30:32.732Z,5.63
2023-04-30T02:32:34.643Z,5.67
2023-04-30T02:34:36.032Z,5.67
2023-04-30T02:36:37.936Z,5.65
2023-04-30T02:38:39.334Z,5.66
2023-04-30T02:40:42.564Z,5.64
2023-04-30T02:42:44.036Z,5.65
2023-04-30T02:44:45.499Z,5.63
2023-04-30T02:46:46.890Z,5.60
2023-04-30T02:48:48.269Z,5.60
2023-04-30T02:50:49.639Z,5.57
2023-04-30T02:52:51.034Z,5.55
2023-04-30T02:54:52.424Z,5.54
2023-04-30T02:56:53.908Z,5.55
2023-04-30T02:58:55.408Z,5.53
2023-04-30T03:00:57.140Z,5.52
2023-04-30T03:02:58.713Z,5.51
2023-04-30T03:05:00.292Z,5.50
2023-04-30T03:07:01.863Z,5.49
2023-04-30T03:09:03.606Z,5.47
2023-04-30T03:11:05.120Z,5.44
2023-04-30T03:13:08.719Z,5.43
2023-04-30T03:15:10.672Z,5.41
2023-04-30T03:17:12.030Z,5.38
2023-04-30T03:19:13.426Z,5.38
2023-04-30T03:21:15.503Z,5.35
2023-04-30T03:23:16.901Z,5.33
2023-04-30T03:25:18.319Z,5.32
2023-04-30T03:27:19.809Z,5.29
2023-04-30T03:29:21.174Z,5.28
2023-04-30T03:31:22.703Z,5.26
2023-04-30T03:33:24.202Z,5.23
2023-04-30T03:35:25.723Z,5.23
2023-04-30T03:37:27.193Z,5.21
2023-04-30T03:39:28.608Z,5.18
2023-04-30T03:41:30.073Z,5.18
2023-04-30T03:43:31.450Z,5.15
2023-04-30T03:45:33.226Z,5.15
2023-04-30T03:47:36.528Z,5.14
2023-04-30T03:49:37.957Z,5.13
2023-04-30T03:51:41.690Z,5.13
2023-04-30T03:53:43.176Z,5.12
2023-04-30T03:55:44.695Z,5.10
2023-04-30T03:57:46.244Z,5.09
2023-04-30T03:59:47.896Z,5.09
2023-04-30T04:01:49.482Z,5.10
2023-04-30T04:03:51.580Z,5.11
2023-04-30T04:05:53.010Z,5.11
2023-04-30T04:07:54.399Z,5.11
2023-04-30T04:09:55.910Z,5.11
2023-04-30T04:11:57.950Z,5.12
2023-04-30T04:13:59.357Z,5.14
2023-04-30T04:16:00.926Z,5.11
2023-04-30T04:18:02.573Z,5.15
2023-04-30T04:20:06.297Z,5.15
2023-04-30T04:22:07.679Z,5.24
2023-04-30T04:24:09.484Z,5.22
2023-04-30T04:26:11.166Z,5.23
2023-04-30T04:28:12.592Z,5.25
2023-04-30T04:30:14.011Z,5.26
2023-04-30T04:32:15.756Z,5.28
2023-04-30T04:34:17.448Z,5.28
2023-04-30T04:36:18.968Z,5.33
2023-04-30T04:38:20.734Z,5.33
2023-04-30T04:40:22.309Z,5.35
2023-04-30T04:42:23.704Z,5.38
2023-04-30T04:44:25.145Z,5.40
2023-04-30T04:46:28.275Z,5.44
2023-04-30T04:48:29.760Z,5.45
2023-04-30T04:50:31.337Z,5.47
2023-04-30T04:52:32.837Z,5.49
2023-04-30T04:54:34.566Z,5.53
2023-04-30T04:56:36.009Z,5.55
2023-04-30T04:58:37.451Z,5.54
2023-04-30T05:00:39.146Z,5.60
2023-04-30T05:02:40.665Z,5.63
2023-04-30T05:04:42.135Z,5.64
2023-04-30T05:06:43.624Z,5.67
2023-04-30T05:08:45.217Z,5.66
2023-04-30T05:10:46.657Z,5.69
2023-04-30T05:12:48.013Z,5.72
2023-04-30T05:14:51.237Z,5.75
2023-04-30T05:16:52.694Z,5.77
2023-04-30T05:18:54.069Z,5.77
2023-04-30T05:20:55.507Z,5.81
2023-04-30T05:22:56.926Z,5.80
2023-04-30T05:24:58.303Z,5.84
2023-04-30T05:26:59.747Z,5.86
2023-04-30T05:29:01.141Z,5.90
2023-04-30T05:31:02.545Z,5.90
2023-04-30T05:33:04.111Z,5.93
2023-04-30T05:35:05.970Z,5.97
2023-04-30T05:37:07.352Z,6.00
2023-04-30T05:39:09.351Z,5.99
2023-04-30T05:41:12.376Z,6.05
2023-04-30T05:43:13.848Z,6.05
2023-04-30T05:45:17.184Z,6.12
2023-04-30T05:47:18.844Z,6.16
2023-04-30T05:49:20.273Z,6.20
2023-04-30T05:51:21.746Z,6.22
2023-04-30T05:53:23.128Z,6.26
2023-04-30T05:55:24.526Z,6.27
2023-04-30T05:57:25.940Z,6.26
2023-04-30T05:59:27.324Z,6.31
2023-04-30T06:01:29.266Z,6.41
2023-04-30T06:03:31.399Z,6.44
2023-04-30T06:05:32.832Z,6.47
2023-04-30T06:07:34.240Z,6.54
2023-04-30T06:09:35.680Z,6.60
2023-04-30T06:11:37.351Z,6.66
2023-04-30T06:13:39.879Z,6.71
2023-04-30T06:15:41.685Z,6.75
2023-04-30T06:17:43.087Z,6.83
2023-04-30T06:19:44.526Z,6.88
2023-04-30T06:21:45.966Z,6.89
2023-04-30T06:23:47.395Z,6.96
2023-04-30T06:25:48.834Z,6.99
2023-04-30T06:27:51.656Z,7.08
2023-04-30T06:29:54.228Z,7.16
2023-04-30T06:31:55.833Z,7.19
2023-04-30T06:33:57.379Z,7.27
2023-04-30T06:35:58.861Z,7.37
2023-04-30T06:38:00.538Z,7.39
2023-04-30T06:40:01.988Z,7.45
2023-04-30T06:42:03.930Z,7.51
2023-04-30T06:44:05.315Z,7.59
2023-04-30T06:46:06.977Z,7.65
2023-04-30T06:48:08.420Z,7.70
2023-04-30T06:50:10.182Z,7.76
2023-04-30T06:52:11.605Z,7.76
2023-04-30T06:54:14.282Z,7.86
2023-04-30T06:56:16.382Z,7.90
2023-04-30T06:58:18.758Z,7.99
2023-04-30T07:00:20.147Z,8.10
2023-04-30T07:02:22.378Z,8.20
2023-04-30T07:04:24.559Z,8.29
2023-04-30T07:06:26.051Z,8.34
2023-04-30T07:08:27.521Z,8.37
2023-04-30T07:10:29.228Z,8.43
2023-04-30T07:12:30.622Z,8.51
2023-04-30T07:14:32.015Z,8.55
2023-04-30T07:16:33.578Z,8.59
2023-04-30T07:18:35.306Z,8.67
2023-04-30T07:20:36.728Z,8.76
2023-04-30T07:22:38.223Z,8.82
2023-04-30T07:24:39.616Z,8.90
2023-04-30T07:26:42.341Z,8.91
2023-04-30T07:28:43.792Z,8.92
2023-04-30T07:30:45.229Z,9.03
2023-04-30T07:32:47.743Z,9.14
2023-04-30T07:34:49.232Z,9.18
2023-04-30T07:36:50.782Z,9.22
2023-04-30T07:38:52.312Z,9.30
2023-04-30T07:40:53.830Z,9.38
2023-04-30T07:42:55.241Z,9.50
2023-04-30T07:44:56.722Z,9.58
2023-04-30T07:46:58.121Z,9.64
2023-04-30T07:48:59.487Z,9.70
2023-04-30T07:51:00.988Z,9.79
2023-04-30T07:53:02.597Z,9.86
2023-04-30T07:55:04.317Z,9.94
2023-04-30T07:57:06.507Z,10.04
2023-04-30T07:59:07.930Z,10.09
2023-04-30T08:01:09.348Z,10.21
2023-04-30T08:03:11.418Z,10.33
2023-04-30T08:05:12.910Z,10.38
2023-04-30T08:07:15.937Z,10.47
2023-04-30T08:09:17.353Z,10.56
2023-04-30T08:11:19.414Z,10.62
2023-04-30T08:13:20.876Z,10.69
2023-04-30T08:15:22.250Z,10.71
2023-04-30T08:17:23.710Z,10.78
2023-04-30T08:19:25.157Z,10.85
2023-04-30T08:21:28.191Z,10.97
2023-04-30T08:23:29.584Z,11.02
2023-04-30T08:25:31.873Z,11.16
2023-04-30T08:27:33.264Z,11.21
2023-04-30T08:29:34.650Z,11.28
2023-04-30T08:31:36.317Z,11.40
2023-04-30T08:33:37.871Z,11.48
2023-04-30T08:35:39.268Z,11.58
2023-04-30T08:37:41.263Z,11.66
2023-04-30T08:39:42.683Z,11.72
2023-04-30T08:41:47.101Z,11.74
2023-04-30T08:43:52.029Z,11.63
2023-04-30T08:45:53.745Z,11.80
2023-04-30T08:47:58.140Z,11.83
2023-04-30T08:50:00.159Z,11.95
2023-04-30T08:52:01.718Z,12.03
2023-04-30T08:54:03.206Z,11.95
2023-04-30T08:56:05.091Z,12.06
2023-04-30T08:58:07.929Z,12.08
2023-04-30T09:00:09.729Z,12.15
2023-04-30T09:02:11.175Z,12.22
2023-04-30T09:04:12.684Z,12.39
2023-04-30T09:06:17.715Z,12.39
2023-04-30T09:08:39.671Z,12.41
2023-04-30T09:10:41.085Z,12.48
2023-04-30T09:12:45.519Z,12.42
2023-04-30T09:14:58.691Z,12.56
2023-04-30T09:17:00.003Z,12.69
2023-04-30T09:19:01.430Z,12.81
2023-04-30T09:21:03.279Z,12.80
2023-04-30T09:23:09.792Z,12.66
2023-04-30T09:25:11.538Z,12.92
2023-04-30T09:27:17.657Z,12.95
2023-04-30T09:29:19.069Z,13.07
2023-04-30T09:31:21.859Z,13.21
2023-04-30T09:33:23.345Z,13.28
2023-04-30T09:35:32.770Z,13.27
2023-04-30T09:37:41.039Z,13.37
2023-04-30T09:39:53.892Z,13.44
2023-04-30T09:42:08.156Z,13.39
2023-04-30T09:44:29.918Z,13.46
2023-04-30T09:46:33.403Z,13.59
2023-04-30T09:48:35.028Z,13.62
2023-04-30T09:50:41.908Z,13.52
2023-04-30T09:52:54.120Z,13.75
2023-04-30T09:54:55.580Z,13.61
2023-04-30T09:57:02.593Z,13.75
2023-04-30T09:59:08.003Z,13.92
2023-04-30T10:01:11.363Z,13.86
2023-04-30T10:03:14.535Z,13.81
2023-04-30T10:05:16.700Z,13.85
2023-04-30T10:07:22.404Z,13.92
2023-04-30T10:09:29.468Z,13.97
2023-04-30T10:11:34.058Z,14.26
2023-04-30T10:13:42.522Z,14.21
2023-04-30T10:15:49.981Z,14.27
2023-04-30T10:18:00.887Z,14.21
2023-04-30T10:20:07.162Z,14.08
2023-04-30T10:22:09.314Z,14.18
2023-04-30T10:24:12.928Z,14.24
2023-04-30T10:26:16.769Z,14.34
2023-04-30T10:28:18.300Z,14.53
2023-04-30T10:30:22.496Z,14.69
2023-04-30T10:32:26.042Z,14.72
2023-04-30T10:35:06.222Z,14.58
2023-04-30T10:37:14.995Z,14.55
2023-04-30T10:39:22.185Z,14.52
2023-04-30T10:41:26.695Z,14.83
2023-04-30T10:43:30.791Z,14.84
2023-04-30T10:45:37.366Z,14.94
2023-04-30T10:47:42.824Z,14.80
2023-04-30T10:49:49.176Z,14.88
2023-04-30T10:51:55.047Z,15.06
2023-04-30T10:53:56.902Z,15.17
2023-04-30T10:56:01.203Z,15.27
2023-04-30T10:58:26.541Z,15.39
2023-04-30T11:00:33.275Z,15.31
2023-04-30T11:02:41.418Z,15.23
2023-04-30T11:05:08.030Z,15.42
2023-04-30T11:07:10.592Z,15.51
2023-04-30T11:09:12.128Z,15.39
2023-04-30T11:11:22.765Z,15.47
2023-04-30T11:13:26.710Z,15.67
2023-04-30T11:15:39.702Z,15.65
2023-04-30T11:17:43.038Z,15.66
2023-04-30T11:19:49.287Z,15.75
2023-04-30T11:22:06.055Z,15.60
2023-04-30T11:24:07.717Z,15.74
2023-04-30T11:26:09.732Z,15.98
2023-04-30T11:28:25.340Z,15.97
2023-04-30T11:30:29.121Z,16.07
2023-04-30T11:32:35.697Z,16.07
2023-04-30T11:34:37.868Z,16.20
2023-04-30T11:36:41.508Z,16.13
2023-04-30T11:38:43.240Z,15.94
2023-04-30T11:40:45.022Z,16.25
2023-04-30T11:42:48.281Z,16.52
2023-04-30T11:44:49.723Z,16.45
2023-04-30T11:46:51.352Z,16.34
2023-04-30T11:48:52.864Z,16.47
2023-04-30T11:50:54.252Z,16.57
2023-04-30T11:52:57.918Z,16.72
2023-04-30T11:55:00.339Z,16.49
2023-04-30T11:57:04.251Z,16.66
2023-04-30T11:59:12.368Z,16.88
2023-04-30T12:01:15.096Z,16.88
2023-04-30T12:03:19.533Z,17.04
2023-04-30T12:05:23.579Z,17.09
2023-04-30T12:07:25.006Z,17.22
2023-04-30T12:09:26.421Z,17.14
2023-04-30T12:11:29.973Z,17.11
2023-04-30T12:13:32.021Z,17.42
2023-04-30T12:15:34.279Z,17.53
2023-04-30T12:17:36.438Z,17.35
2023-04-30T12:19:37.937Z,17.35
2023-04-30T12:21:41.074Z,17.43
2023-04-30T12:23:42.521Z,17.44
2023-04-30T12:25:44.139Z,17.40
2023-04-30T12:27:47.547Z,17.51
2023-04-30T12:29:51.049Z,17.26
2023-04-30T12:31:54.056Z,17.12
2023-04-30T12:33:56.897Z,17.32
2023-04-30T12:35:59.438Z,17.44
2023-04-30T12:38:06.040Z,17.38
2023-04-30T12:40:07.965Z,17.55
2023-04-30T12:42:10.134Z,17.58
2023-04-30T12:44:24.853Z,17.41
2023-04-30T12:46:27.750Z,17.68
2023-04-30T12:48:29.217Z,17.83
2023-04-30T12:50:30.654Z,17.70
2023-04-30T12:52:32.717Z,17.75
2023-04-30T12:54:35.952Z,17.75
2023-04-30T12:56:37.633Z,17.88
2023-04-30T12:58:39.783Z,17.55
2023-04-30T13:00:47.789Z,17.92
2023-04-30T13:02:50.261Z,17.95
2023-04-30T13:04:53.236Z,17.92
2023-04-30T13:06:54.640Z,17.99
2023-04-30T13:08:58.366Z,17.89
2023-04-30T13:11:00.404Z,18.22
2023-04-30T13:13:01.836Z,18.35
2023-04-30T13:15:03.890Z,18.28
2023-04-30T13:17:07.272Z,18.45
2023-04-30T13:19:08.801Z,18.16
2023-04-30T13:21:10.697Z,18.14
2023-04-30T13:23:12.406Z,18.17
2023-04-30T13:25:13.785Z,17.97
2023-04-30T13:27:15.186Z,17.84
2023-04-30T13:29:16.699Z,18.36
2023-04-30T13:31:18.402Z,18.30
2023-04-30T13:33:20.756Z,18.59
2023-04-30T13:35:22.863Z,18.79
2023-04-30T13:37:24.396Z,18.76
2023-04-30T13:39:25.896Z,18.88
2023-04-30T13:41:27.449Z,18.95
2023-04-30T13:43:29.271Z,19.03
2023-04-30T13:45:30.756Z,19.00
2023-04-30T13:47:32.253Z,19.20
2023-04-30T13:49:37.415Z,19.15
2023-04-30T13:51:38.897Z,19.26
2023-04-30T13:53:40.425Z,19.30
2023-04-30T13:55:42.002Z,19.12
2023-04-30T13:57:43.417Z,19.05
2023-04-30T13:59:45.070Z,19.12
2023-04-30T14:01:46.657Z,19.14
2023-04-30T14:03:48.256Z,18.89
2023-04-30T14:05:49.950Z,18.63
2023-04-30T14:07:51.355Z,18.63
2023-04-30T14:09:52.898Z,18.79
2023-04-30T14:11:56.200Z,18.77
2023-04-30T14:13:58.086Z,18.92
2023-04-30T14:15:59.557Z,19.08
2023-04-30T14:18:01.488Z,19.25
2023-04-30T14:20:03.924Z,18.98
2023-04-30T14:22:05.758Z,19.14
2023-04-30T14:24:07.618Z,18.88
2023-04-30T14:26:09.483Z,19.18
2023-04-30T14:28:11.749Z,19.26
2023-04-30T14:30:13.528Z,19.35
2023-04-30T14:32:15.072Z,19.58
2023-04-30T14:34:17.295Z,19.55
2023-04-30T14:36:18.778Z,19.72
2023-04-30T14:38:20.684Z,19.65
2023-04-30T14:40:22.087Z,19.69
2023-04-30T14:42:23.528Z,20.03
2023-04-30T14:44:25.531Z,19.72
2023-04-30T14:46:27.368Z,20.44
2023-04-30T14:48:28.983Z,20.97
2023-04-30T14:50:30.368Z,21.08
2023-04-30T14:52:31.745Z,22.39
2023-04-30T14:54:33.390Z,28.13
2023-04-30T14:56:34.957Z,30.62
2023-04-30T14:58:36.398Z,32.31
2023-04-30T15:00:37.788Z,34.14
2023-04-30T15:02:39.258Z,36.55
2023-04-30T15:04:45.410Z,35.62
2023-04-30T15:06:47.364Z,36.94
2023-04-30T15:08:48.758Z,36.98
2023-04-30T15:10:50.437Z,38.88
2023-04-30T15:12:51.894Z,36.46
2023-04-30T15:14:53.374Z,35.51
2023-04-30T15:16:55.012Z,37.29
2023-04-30T15:18:56.725Z,37.03
2023-04-30T15:20:58.135Z,37.27
2023-04-30T15:22:59.965Z,37.49
2023-04-30T15:25:01.439Z,36.88
2023-04-30T15:27:04.264Z,35.48
2023-04-30T15:29:05.695Z,36.06
2023-04-30T15:31:07.212Z,37.77
2023-04-30T15:33:08.678Z,39.35
2023-04-30T15:35:10.306Z,40.25
2023-04-30T15:37:11.755Z,41.18
2023-04-30T15:39:13.383Z,40.88
2023-04-30T15:41:14.822Z,38.75
2023-04-30T15:43:16.566Z,39.48
2023-04-30T15:45:20.363Z,40.31
2023-04-30T15:47:23.874Z,40.66
2023-04-30T15:49:25.522Z,39.77
2023-04-30T15:51:28.338Z,39.40
2023-04-30T15:53:29.849Z,41.00
2023-04-30T15:55:31.495Z,42.83
2023-04-30T15:57:32.876Z,42.23
2023-04-30T15:59:34.281Z,40.88
2023-04-30T16:01:35.754Z,39.64
2023-04-30T16:03:37.887Z,38.70
2023-04-30T16:05:40.497Z,38.42
2023-04-30T16:07:43.888Z,37.17
2023-04-30T16:09:48.799Z,37.22
2023-04-30T16:11:50.895Z,37.80
2023-04-30T16:13:52.842Z,39.00
2023-04-30T16:15:54.323Z,37.75
2023-04-30T16:17:56.702Z,36.12
2023-04-30T16:19:59.869Z,35.55
2023-04-30T16:22:01.738Z,35.12
2023-04-30T16:24:03.209Z,35.08
2023-04-30T16:26:04.689Z,35.41
2023-04-30T16:28:06.195Z,35.51
2023-04-30T16:30:08.496Z,34.70
2023-04-30T16:32:10.193Z,33.07
2023-04-30T16:34:12.142Z,32.54
2023-04-30T16:36:13.535Z,35.70
2023-04-30T16:38:14.903Z,36.54
2023-04-30T16:40:17.255Z,36.25
2023-04-30T16:42:18.839Z,35.18
2023-04-30T16:44:20.579Z,32.29
2023-04-30T16:46:22.083Z,31.78
2023-04-30T16:48:23.643Z,33.64
2023-04-30T16:50:26.794Z,33.14
2023-04-30T16:52:28.677Z,34.91
2023-04-30T16:54:30.094Z,34.79
2023-04-30T16:56:31.481Z,34.05
2023-04-30T16:58:32.865Z,33.71
2023-04-30T17:00:34.372Z,32.46
2023-04-30T17:02:36.853Z,31.95
2023-04-30T17:04:38.480Z,28.58
2023-04-30T17:06:39.970Z,26.92
2023-04-30T17:08:41.438Z,26.02
2023-04-30T17:10:42.947Z,24.97
2023-04-30T17:12:44.463Z,24.30
2023-04-30T17:14:45.864Z,23.52
2023-04-30T17:16:47.532Z,23.20
2023-04-30T17:18:49.229Z,22.37
2023-04-30T17:20:52.196Z,22.55
2023-04-30T17:22:55.826Z,21.84
2023-04-30T17:26:51.482Z,21.30
2023-04-30T17:28:52.911Z,21.00
2023-04-30T17:30:55.147Z,20.82
2023-04-30T17:32:56.756Z,20.86
2023-04-30T17:34:58.349Z,20.67
2023-04-30T17:36:59.767Z,20.00
2023-04-30T17:39:05.308Z,20.00
2023-04-30T17:41:06.766Z,20.19
2023-04-30T17:43:08.441Z,19.61
2023-04-30T17:45:10.377Z,19.57
2023-04-30T17:47:12.458Z,19.21
2023-04-30T17:49:15.051Z,19.24
2023-04-30T17:51:16.481Z,19.09
2023-04-30T17:53:17.853Z,18.68
2023-04-30T17:55:19.292Z,18.68
2023-04-30T17:57:20.691Z,18.51
2023-04-30T17:59:22.150Z,18.42
2023-04-30T18:01:24.796Z,17.90
2023-04-30T18:03:26.443Z,17.90
2023-04-30T18:05:27.900Z,17.82
2023-04-30T18:07:29.457Z,17.88
2023-04-30T18:09:32.193Z,17.64
2023-04-30T18:11:33.730Z,17.48
2023-04-30T18:13:37.437Z,17.36
2023-04-30T18:15:38.935Z,17.25
2023-04-30T18:17:41.508Z,17.12
2023-04-30T18:19:48.678Z,16.96
2023-04-30T18:21:52.699Z,16.73
2023-04-30T18:23:54.981Z,16.44
2023-04-30T18:25:56.371Z,16.32
2023-04-30T18:27:57.885Z,16.13
2023-04-30T18:29:59.244Z,15.86
2023-04-30T18:32:00.952Z,15.91
2023-04-30T18:34:02.397Z,15.80
2023-04-30T18:36:05.997Z,15.66
2023-04-30T18:38:08.148Z,15.48
2023-04-30T18:40:10.020Z,15.36
2023-04-30T18:42:12.166Z,15.35
2023-04-30T18:44:13.750Z,15.24
2023-04-30T18:46:15.361Z,15.07
2023-04-30T18:48:18.978Z,14.99
2023-04-30T18:50:21.478Z,14.87
2023-04-30T18:52:23.862Z,14.68
2023-04-30T18:54:25.314Z,14.72
2023-04-30T18:56:26.751Z,14.55
2023-04-30T18:58:28.138Z,14.52
2023-04-30T19:00:29.596Z,14.57
2023-04-30T19:02:31.554Z,14.32
2023-04-30T19:04:33.457Z,14.30
2023-04-30T19:06:34.889Z,14.17
2023-04-30T19:08:36.765Z,14.10
2023-04-30T19:10:38.201Z,14.11
2023-04-30T19:12:39.651Z,14.06
2023-04-30T19:14:41.641Z,13.94
2023-04-30T19:16:44.488Z,13.88
2023-04-30T19:18:45.932Z,13.76
2023-04-30T19:20:59.864Z,13.70
2023-04-30T19:23:01.279Z,13.67
2023-04-30T19:25:02.720Z,13.64
2023-04-30T19:27:04.281Z,13.47
2023-04-30T19:29:05.769Z,13.41
2023-04-30T19:31:07.231Z,13.42
2023-04-30T19:33:08.825Z,13.32
2023-04-30T19:35:10.694Z,13.29
2023-04-30T19:37:12.216Z,13.22
2023-04-30T19:39:13.860Z,13.09
2023-04-30T19:41:15.602Z,13.07
2023-04-30T19:43:17.158Z,13.01
2023-04-30T19:45:18.830Z,12.90
2023-04-30T19:47:20.546Z,12.95
2023-04-30T19:49:26.075Z,12.87
2023-04-30T19:51:28.003Z,12.80
2023-04-30T19:53:30.203Z,12.79
2023-04-30T19:55:31.978Z,12.72
2023-04-30T19:57:35.811Z,12.67
2023-04-30T19:59:37.223Z,12.62
2023-04-30T20:01:38.805Z,12.56
2023-04-30T20:03:42.428Z,12.50
2023-04-30T20:05:44.807Z,12.43
2023-04-30T20:07:46.285Z,12.39
2023-04-30T20:09:47.744Z,12.32
2023-04-30T20:11:50.799Z,12.25
2023-04-30T20:13:52.260Z,12.17
2023-04-30T20:15:53.912Z,12.12
2023-04-30T20:17:55.591Z,12.09
2023-04-30T20:19:57.385Z,12.01
2023-04-30T20:21:58.995Z,12.00
2023-04-30T20:24:00.485Z,11.95
2023-04-30T20:26:01.944Z,11.86
2023-04-30T20:28:04.102Z,11.79
2023-04-30T20:30:06.234Z,11.76
2023-04-30T20:32:07.731Z,11.72
2023-04-30T20:34:09.134Z,11.67
2023-04-30T20:36:10.568Z,11.62
2023-04-30T20:38:12.920Z,11.59
2023-04-30T20:40:14.645Z,11.52
2023-04-30T20:42:16.293Z,11.49
2023-04-30T20:44:17.762Z,11.43
2023-04-30T20:46:19.766Z,11.40
2023-04-30T20:48:21.585Z,11.37
2023-04-30T20:50:23.059Z,11.30
2023-04-30T20:52:24.498Z,11.25
2023-04-30T20:54:26.018Z,11.21
2023-04-30T20:56:27.391Z,11.18
2023-04-30T20:58:28.915Z,11.12
2023-04-30T21:00:30.438Z,11.09
2023-04-30T21:02:32.070Z,11.05
2023-04-30T21:04:33.568Z,10.99
2023-04-30T21:06:35.090Z,10.96
2023-04-30T21:08:36.620Z,10.91
2023-04-30T21:10:38.114Z,10.84
2023-04-30T21:12:39.543Z,10.80
2023-04-30T21:14:41.429Z,10.78
2023-04-30T21:16:43.584Z,10.75
2023-04-30T21:18:46.190Z,10.71
2023-04-30T21:20:47.980Z,10.68
2023-04-30T21:22:49.869Z,10.65
2023-04-30T21:24:54.597Z,10.62
2023-04-30T21:26:56.084Z,10.61
2023-04-30T21:28:57.675Z,10.59
2023-04-30T21:31:04.745Z,10.58
2023-04-30T21:33:06.215Z,10.56
2023-04-30T21:35:08.065Z,10.52
2023-04-30T21:37:09.485Z,10.47
2023-04-30T21:39:11.075Z,10.45
2023-04-30T21:41:16.278Z,10.41
2023-04-30T21:43:17.978Z,10.36
2023-04-30T21:45:19.741Z,10.35
2023-04-30T21:47:21.215Z,10.31
2023-04-30T21:49:22.656Z,10.29
2023-04-30T21:51:24.099Z,10.25
2023-04-30T21:53:25.764Z,10.22
2023-04-30T21:55:27.344Z,10.20
2023-04-30T21:57:28.817Z,10.15
2023-04-30T21:59:30.237Z,10.14
2023-04-30T22:01:32.022Z,10.12
2023-04-30T22:03:34.740Z,10.07
2023-04-30T22:05:37.078Z,10.06
2023-04-30T22:07:39.528Z,10.04
2023-04-30T22:09:41.044Z,10.00
2023-04-30T22:11:42.596Z,9.99
2023-04-30T22:13:44.016Z,9.98
2023-04-30T22:15:48.559Z,9.96
2023-04-30T22:17:50.373Z,9.92
2023-04-30T22:19:51.808Z,9.91
2023-04-30T22:21:53.250Z,9.87
2023-04-30T22:23:54.628Z,9.85
2023-04-30T22:25:56.012Z,9.81
2023-04-30T22:27:57.381Z,9.80
2023-04-30T22:29:59.087Z,9.79
2023-04-30T22:32:01.638Z,9.77
2023-04-30T22:34:03.385Z,9.73
2023-04-30T22:36:06.139Z,9.72
2023-04-30T22:38:07.695Z,9.71
2023-04-30T22:40:09.494Z,9.69
2023-04-30T22:42:10.976Z,9.67
2023-04-30T22:44:14.516Z,9.66
2023-04-30T22:46:16.297Z,9.64
2023-04-30T22:48:18.683Z,9.64
2023-04-30T22:50:20.274Z,9.60
2023-04-30T22:52:21.821Z,9.58
2023-04-30T22:54:24.099Z,9.54
2023-04-30T22:56:25.551Z,9.51
2023-04-30T22:58:26.959Z,9.50
2023-04-30T23:00:28.911Z,9.48
2023-04-30T23:02:30.342Z,9.44
2023-04-30T23:04:36.668Z,9.41
2023-04-30T23:06:38.177Z,9.39
2023-04-30T23:08:40.283Z,9.35
2023-04-30T23:10:44.131Z,9.33
2023-04-30T23:12:45.571Z,9.31
2023-04-30T23:14:47.242Z,9.29
2023-04-30T23:16:48.684Z,9.28
2023-04-30T23:18:50.265Z,9.26
2023-04-30T23:20:51.757Z,9.22
2023-04-30T23:22:53.318Z,9.20
2023-04-30T23:24:56.999Z,9.16
2023-04-30T23:26:58.414Z,9.13
2023-04-30T23:28:59.820Z,9.12
2023-04-30T23:31:01.300Z,9.13
2023-04-30T23:33:02.776Z,9.09
2023-04-30T23:35:04.588Z,9.06
2023-04-30T23:37:06.037Z,9.09
2023-04-30T23:39:07.970Z,9.08
2023-04-30T23:41:09.405Z,9.08
2023-04-30T23:43:11.659Z,9.07
2023-04-30T23:45:13.067Z,9.04
2023-04-30T23:47:16.674Z,9.03
2023-04-30T23:49:18.319Z,8.98
2023-04-30T23:51:21.662Z,8.97
2023-04-30T23:53:23.129Z,8.94
2023-04-30T23:55:24.531Z,8.89
2023-04-30T23:57:27.944Z,8.88
2023-04-30T23:59:29.370Z,8.86
